createdAt,value
2023-03-03T00:01:16.396Z,1.86
2023-03-03T00:04:19.307Z,1.74
2023-03-03T00:07:23.350Z,1.73
2023-03-03T00:10:26.383Z,1.71
2023-03-03T00:13:31.898Z,1.73
2023-03-03T00:16:38.802Z,1.70
2023-03-03T00:19:42.307Z,1.72
2023-03-03T00:22:45.079Z,1.59
2023-03-03T00:25:50.262Z,1.61
2023-03-03T00:28:54.604Z,1.60
2023-03-03T00:32:23.803Z,1.57
2023-03-03T00:35:30.453Z,1.58
2023-03-03T00:38:35.806Z,1.55
2023-03-03T00:41:39.682Z,1.62
2023-03-03T00:44:45.375Z,1.65
2023-03-03T00:47:48.273Z,1.59
2023-03-03T00:50:53.296Z,1.66
2023-03-03T00:53:57.703Z,1.67
2023-03-03T00:57:00.156Z,1.64
2023-03-03T01:00:04.685Z,1.50
2023-03-03T01:03:11.249Z,1.45
2023-03-03T01:06:15.367Z,1.38
2023-03-03T01:09:18.882Z,1.40
2023-03-03T01:12:21.957Z,1.29
2023-03-03T01:15:24.722Z,1.40
2023-03-03T01:18:28.590Z,1.46
2023-03-03T01:21:31.115Z,1.44
2023-03-03T01:24:34.020Z,1.47
2023-03-03T01:27:36.749Z,1.43
2023-03-03T01:30:39.996Z,1.44
2023-03-03T01:33:42.719Z,1.40
2023-03-03T01:36:45.579Z,1.48
2023-03-03T01:39:51.191Z,1.36
2023-03-03T01:42:54.311Z,1.32
2023-03-03T01:45:57.283Z,1.37
2023-03-03T01:49:08.319Z,1.28
2023-03-03T01:52:27.407Z,1.13
2023-03-03T01:55:41.434Z,1.09
2023-03-03T01:58:51.378Z,1.16
2023-03-03T02:01:54.505Z,1.18
2023-03-03T02:04:57.510Z,1.21
2023-03-03T02:08:00.125Z,1.21
2023-03-03T02:11:04.874Z,1.20
2023-03-03T02:14:07.820Z,1.20
2023-03-03T02:17:10.889Z,1.21
2023-03-03T02:20:29.202Z,1.15
2023-03-03T02:23:57.842Z,1.12
2023-03-03T02:27:01.540Z,1.16
2023-03-03T02:30:17.345Z,1.10
2023-03-03T02:33:20.141Z,1.07
2023-03-03T02:36:25.172Z,1.04
2023-03-03T02:39:30.602Z,1.00
2023-03-03T02:42:33.651Z,0.95
2023-03-03T02:45:42.704Z,0.99
2023-03-03T02:48:45.217Z,1.03
2023-03-03T02:51:48.456Z,1.06
2023-03-03T02:54:51.593Z,0.99
2023-03-03T02:57:54.549Z,1.04
2023-03-03T03:00:57.244Z,1.05
2023-03-03T03:04:00.413Z,0.92
2023-03-03T03:07:03.669Z,0.90
2023-03-03T03:10:07.663Z,0.88
2023-03-03T03:13:11.962Z,0.86
2023-03-03T03:16:15.139Z,0.92
2023-03-03T03:19:17.763Z,0.89
2023-03-03T03:22:20.849Z,0.93
2023-03-03T03:25:23.599Z,1.00
2023-03-03T03:28:26.920Z,0.98
2023-03-03T03:31:30.069Z,1.02
2023-03-03T03:34:33.087Z,0.89
2023-03-03T03:37:35.724Z,0.89
2023-03-03T03:40:39.772Z,0.87
2023-03-03T03:43:42.987Z,0.86
2023-03-03T03:46:45.925Z,0.89
2023-03-03T03:49:48.687Z,0.96
2023-03-03T03:52:51.833Z,1.01
2023-03-03T03:56:01.041Z,1.10
2023-03-03T03:59:06.993Z,0.88
2023-03-03T04:02:09.807Z,0.90
2023-03-03T04:05:13.356Z,0.88
2023-03-03T04:08:16.224Z,0.92
2023-03-03T04:11:20.006Z,1.05
2023-03-03T04:14:22.742Z,0.92
2023-03-03T04:17:25.523Z,0.94
2023-03-03T04:20:29.078Z,1.00
2023-03-03T04:23:32.220Z,1.03
2023-03-03T04:26:35.614Z,0.99
2023-03-03T04:29:39.127Z,0.98
2023-03-03T04:32:42.070Z,0.94
2023-03-03T04:35:45.607Z,1.01
2023-03-03T04:38:49.188Z,1.02
2023-03-03T04:41:52.119Z,1.01
2023-03-03T04:44:55.963Z,0.95
2023-03-03T04:47:59.285Z,0.90
2023-03-03T04:51:01.923Z,0.85
2023-03-03T04:54:10.883Z,0.86
2023-03-03T04:57:13.930Z,0.82
2023-03-03T05:00:18.248Z,0.85
2023-03-03T05:03:21.288Z,0.83
2023-03-03T05:06:25.253Z,0.87
2023-03-03T05:09:27.823Z,0.91
2023-03-03T05:12:30.873Z,0.90
2023-03-03T05:15:33.504Z,0.90
2023-03-03T05:18:37.917Z,0.87
2023-03-03T05:21:42.885Z,0.86
2023-03-03T05:24:49.184Z,0.87
2023-03-03T05:27:51.735Z,0.93
2023-03-03T05:30:54.616Z,0.94
2023-03-03T05:33:57.246Z,0.90
2023-03-03T05:37:00.117Z,0.96
2023-03-03T05:40:06.752Z,1.06
2023-03-03T05:43:10.024Z,0.89
2023-03-03T05:46:12.824Z,0.90
2023-03-03T05:49:15.753Z,0.92
2023-03-03T05:52:18.597Z,0.91
2023-03-03T05:55:21.570Z,0.89
2023-03-03T05:58:24.292Z,0.93
2023-03-03T06:01:28.600Z,0.97
2023-03-03T06:04:31.489Z,1.01
2023-03-03T06:07:34.256Z,1.01
2023-03-03T06:10:37.452Z,1.06
2023-03-03T06:13:42.711Z,0.99
2023-03-03T06:16:45.776Z,1.04
2023-03-03T06:19:50.917Z,1.05
2023-03-03T06:22:53.856Z,1.13
2023-03-03T06:25:56.415Z,1.18
2023-03-03T06:28:59.959Z,1.15
2023-03-03T06:32:02.615Z,1.23
2023-03-03T06:35:05.999Z,1.30
2023-03-03T06:38:08.568Z,1.27
2023-03-03T06:41:11.607Z,1.39
2023-03-03T06:44:14.131Z,1.48
2023-03-03T06:47:17.177Z,1.52
2023-03-03T06:50:20.988Z,1.56
2023-03-03T06:53:24.239Z,1.55
2023-03-03T06:56:27.682Z,1.58
2023-03-03T06:59:30.503Z,1.64
2023-03-03T07:02:35.183Z,1.64
2023-03-03T07:05:38.150Z,1.68
2023-03-03T07:08:41.489Z,1.75
2023-03-03T07:11:46.588Z,1.84
2023-03-03T07:15:03.903Z,1.93
2023-03-03T07:18:52.615Z,2.10
2023-03-03T07:21:55.361Z,2.15
2023-03-03T07:25:03.008Z,2.18
2023-03-03T07:28:28.124Z,2.23
2023-03-03T07:31:35.441Z,2.30
2023-03-03T07:34:40.991Z,2.49
2023-03-03T07:37:43.944Z,2.57
2023-03-03T07:40:55.743Z,2.69
2023-03-03T07:44:18.134Z,2.85
2023-03-03T07:47:28.696Z,2.96
2023-03-03T07:50:32.370Z,3.07
2023-03-03T07:53:36.494Z,3.18
2023-03-03T07:56:39.553Z,3.31
2023-03-03T08:00:01.562Z,3.43
2023-03-03T08:03:11.573Z,3.59
2023-03-03T08:06:36.390Z,3.69
2023-03-03T08:09:49.137Z,3.92
2023-03-03T08:13:26.217Z,4.03
2023-03-03T08:16:37.696Z,4.25
2023-03-03T08:19:40.558Z,4.48
2023-03-03T08:22:43.604Z,4.58
2023-03-03T08:25:47.805Z,4.76
2023-03-03T08:28:50.734Z,4.87
2023-03-03T08:31:53.754Z,4.95
2023-03-03T08:35:02.062Z,5.14
2023-03-03T08:38:06.683Z,5.24
2023-03-03T08:41:10.022Z,5.33
2023-03-03T08:44:14.684Z,5.48
2023-03-03T08:47:17.415Z,5.66
2023-03-03T08:50:20.879Z,5.82
2023-03-03T08:53:24.352Z,5.99
2023-03-03T08:56:28.109Z,6.18
2023-03-03T08:59:31.166Z,6.37
2023-03-03T09:02:34.167Z,6.57
2023-03-03T09:05:38.665Z,6.72
2023-03-03T09:08:45.271Z,6.91
2023-03-03T09:11:47.963Z,7.08
2023-03-03T09:14:51.581Z,7.21
2023-03-03T09:17:55.448Z,7.48
2023-03-03T09:20:58.446Z,7.62
2023-03-03T09:24:01.341Z,7.75
2023-03-03T09:27:15.773Z,7.89
2023-03-03T09:30:42.687Z,8.07
2023-03-03T09:33:47.360Z,8.29
2023-03-03T09:36:51.762Z,8.44
2023-03-03T09:39:56.088Z,8.58
2023-03-03T09:43:24.116Z,8.82
2023-03-03T09:46:58.140Z,8.98
2023-03-03T09:50:16.128Z,9.22
2023-03-03T09:53:25.953Z,9.49
2023-03-03T09:56:31.401Z,9.70
2023-03-03T09:59:47.067Z,9.91
2023-03-03T10:03:04.443Z,10.07
2023-03-03T10:06:16.468Z,10.26
2023-03-03T10:09:37.975Z,10.40
2023-03-03T10:13:14.464Z,10.57
2023-03-03T10:16:31.674Z,10.70
2023-03-03T10:19:46.459Z,10.81
2023-03-03T10:22:56.535Z,10.85
2023-03-03T10:26:20.294Z,11.10
2023-03-03T10:30:01.103Z,11.23
2023-03-03T10:33:06.900Z,11.47
2023-03-03T10:36:20.060Z,11.66
2023-03-03T10:40:00.422Z,11.74
2023-03-03T10:43:11.293Z,11.84
2023-03-03T10:46:34.995Z,12.07
2023-03-03T10:49:43.647Z,12.10
2023-03-03T10:53:09.174Z,12.16
2023-03-03T10:56:11.715Z,12.31
2023-03-03T10:59:27.358Z,12.53
2023-03-03T11:02:47.606Z,12.67
2023-03-03T11:06:12.296Z,12.79
2023-03-03T11:09:21.009Z,12.88
2023-03-03T11:12:47.667Z,12.87
2023-03-03T11:15:59.783Z,12.90
2023-03-03T11:19:06.089Z,13.07
2023-03-03T11:22:24.071Z,13.10
2023-03-03T11:25:45.504Z,13.08
2023-03-03T11:29:06.801Z,13.29
2023-03-03T11:32:33.443Z,13.43
2023-03-03T11:36:09.469Z,13.51
2023-03-03T11:39:16.818Z,13.68
2023-03-03T11:42:30.588Z,13.67
2023-03-03T11:45:45.920Z,13.86
2023-03-03T11:49:19.038Z,13.84
2023-03-03T11:52:32.557Z,13.85
2023-03-03T11:55:40.262Z,13.92
2023-03-03T11:58:48.703Z,14.01
2023-03-03T12:02:02.475Z,13.88
2023-03-03T12:05:10.237Z,13.89
2023-03-03T12:08:18.908Z,13.93
2023-03-03T12:11:28.616Z,13.93
2023-03-03T12:14:52.471Z,13.95
2023-03-03T12:17:58.351Z,14.03
2023-03-03T12:21:04.141Z,14.14
2023-03-03T12:24:25.709Z,14.14
2023-03-03T12:27:55.901Z,14.21
2023-03-03T12:30:59.191Z,14.19
2023-03-03T12:34:17.027Z,14.35
2023-03-03T12:37:29.203Z,14.34
2023-03-03T12:40:34.422Z,14.42
2023-03-03T12:43:44.076Z,14.60
2023-03-03T12:47:06.818Z,14.55
2023-03-03T12:50:09.826Z,14.62
2023-03-03T12:53:28.707Z,14.59
2023-03-03T12:56:46.310Z,14.69
2023-03-03T13:00:34.683Z,14.75
2023-03-03T13:03:55.306Z,14.76
2023-03-03T13:07:06.399Z,15.05
2023-03-03T13:10:32.768Z,14.96
2023-03-03T13:13:52.727Z,14.91
2023-03-03T13:17:04.194Z,14.89
2023-03-03T13:20:15.912Z,14.74
2023-03-03T13:23:42.135Z,14.71
2023-03-03T13:26:46.614Z,14.70
2023-03-03T13:29:59.051Z,14.60
2023-03-03T13:33:17.203Z,14.63
2023-03-03T13:36:20.797Z,14.57
2023-03-03T13:39:28.461Z,14.47
2023-03-03T13:42:39.451Z,14.44
2023-03-03T13:46:05.622Z,14.28
2023-03-03T13:49:23.094Z,14.07
2023-03-03T13:52:28.836Z,13.72
2023-03-03T13:55:34.963Z,13.87
2023-03-03T13:59:02.125Z,13.77
2023-03-03T14:02:35.827Z,13.86
2023-03-03T14:05:45.572Z,13.71
2023-03-03T14:09:02.108Z,13.73
2023-03-03T14:12:14.996Z,13.78
2023-03-03T14:15:28.961Z,13.66
2023-03-03T14:18:54.759Z,13.71
2023-03-03T14:22:15.914Z,13.61
2023-03-03T14:25:18.956Z,13.57
2023-03-03T14:28:24.165Z,13.46
2023-03-03T14:31:31.079Z,13.45
2023-03-03T14:34:33.581Z,13.51
2023-03-03T14:37:44.745Z,13.41
2023-03-03T14:40:48.536Z,13.44
2023-03-03T14:44:00.256Z,13.48
2023-03-03T14:47:08.921Z,13.42
2023-03-03T14:50:32.050Z,13.27
2023-03-03T14:53:37.692Z,13.23
2023-03-03T14:56:57.536Z,13.25
2023-03-03T15:00:02.631Z,13.05
2023-03-03T15:03:22.278Z,12.90
2023-03-03T15:06:44.178Z,13.02
2023-03-03T15:09:51.374Z,12.91
2023-03-03T15:12:54.129Z,12.71
2023-03-03T15:16:00.118Z,12.55
2023-03-03T15:19:50.549Z,12.40
2023-03-03T15:23:35.442Z,12.04
2023-03-03T15:26:37.848Z,12.16
2023-03-03T15:30:03.527Z,11.89
2023-03-03T15:33:18.164Z,11.79
2023-03-03T15:36:46.899Z,11.75
2023-03-03T15:39:55.180Z,11.67
2023-03-03T15:43:10.569Z,11.67
2023-03-03T15:46:13.270Z,11.57
2023-03-03T15:49:34.282Z,11.65
2023-03-03T15:52:39.502Z,11.59
2023-03-03T15:56:19.028Z,11.59
2023-03-03T16:00:04.002Z,11.50
2023-03-03T16:03:20.300Z,11.33
2023-03-03T16:06:50.913Z,11.34
2023-03-03T16:10:12.254Z,11.32
2023-03-03T16:13:43.079Z,11.05
2023-03-03T16:16:54.790Z,10.97
2023-03-03T16:20:25.169Z,10.86
2023-03-03T16:23:55.122Z,10.85
2023-03-03T16:27:06.481Z,10.72
2023-03-03T16:30:26.675Z,10.59
2023-03-03T16:33:44.180Z,10.69
2023-03-03T16:37:09.606Z,10.50
2023-03-03T16:40:33.824Z,10.43
2023-03-03T16:43:38.982Z,10.44
2023-03-03T16:46:45.023Z,10.25
2023-03-03T16:50:10.921Z,10.09
2023-03-03T16:53:27.468Z,9.90
2023-03-03T16:56:40.596Z,9.84
2023-03-03T16:59:51.738Z,9.74
2023-03-03T17:03:43.751Z,9.67
2023-03-03T17:06:54.103Z,9.58
2023-03-03T17:10:21.274Z,9.37
2023-03-03T17:13:44.093Z,9.20
2023-03-03T17:17:01.476Z,9.03
2023-03-03T17:20:13.866Z,8.83
2023-03-03T17:23:35.032Z,8.71
2023-03-03T17:27:03.591Z,8.58
2023-03-03T17:30:31.792Z,8.44
2023-03-03T17:33:53.435Z,8.26
2023-03-03T17:37:16.567Z,8.08
2023-03-03T17:40:47.805Z,7.98
2023-03-03T17:44:08.922Z,7.86
2023-03-03T17:47:23.945Z,7.72
2023-03-03T17:51:05.132Z,7.60
2023-03-03T17:54:26.953Z,7.45
2023-03-03T17:57:48.209Z,7.42
2023-03-03T18:01:28.829Z,7.28
2023-03-03T18:04:37.841Z,7.19
2023-03-03T18:07:57.480Z,7.06
2023-03-03T18:11:10.264Z,6.87
2023-03-03T18:14:19.296Z,6.84
2023-03-03T18:17:37.513Z,6.64
2023-03-03T18:21:06.714Z,6.54
2023-03-03T18:24:29.547Z,6.39
2023-03-03T18:27:37.575Z,6.32
2023-03-03T18:30:58.564Z,6.15
2023-03-03T18:34:08.401Z,6.09
2023-03-03T18:37:29.648Z,5.99
2023-03-03T18:40:34.218Z,5.91
2023-03-03T18:43:59.062Z,5.79
2023-03-03T18:47:01.880Z,5.81
2023-03-03T18:50:24.738Z,5.58
2023-03-03T18:53:31.064Z,5.48
2023-03-03T18:56:45.281Z,5.40
2023-03-03T18:59:53.202Z,5.44
2023-03-03T19:02:59.147Z,5.24
2023-03-03T19:06:04.591Z,5.20
2023-03-03T19:09:11.855Z,5.12
2023-03-03T19:12:16.477Z,5.04
2023-03-03T19:15:33.625Z,4.86
2023-03-03T19:18:42.610Z,4.81
2023-03-03T19:21:52.899Z,4.67
2023-03-03T19:25:08.277Z,4.55
2023-03-03T19:28:42.122Z,4.42
2023-03-03T19:32:13.794Z,4.38
2023-03-03T19:35:48.145Z,4.53
2023-03-03T19:39:09.891Z,4.25
2023-03-03T19:42:49.288Z,4.18
2023-03-03T19:46:08.414Z,4.07
2023-03-03T19:49:20.241Z,4.00
2023-03-03T19:52:47.289Z,3.96
2023-03-03T19:56:08.716Z,3.96
2023-03-03T19:59:42.357Z,3.82
2023-03-03T20:03:28.266Z,3.76
2023-03-03T20:06:59.016Z,3.68
2023-03-03T20:10:26.140Z,3.52
2023-03-03T20:13:52.612Z,3.60
2023-03-03T20:16:57.805Z,3.56
2023-03-03T20:20:25.978Z,3.40
2023-03-03T20:24:02.538Z,3.33
2023-03-03T20:27:07.051Z,3.21
2023-03-03T20:30:22.154Z,3.18
2023-03-03T20:33:34.378Z,3.09
2023-03-03T20:36:45.609Z,3.08
2023-03-03T20:40:03.470Z,3.10
2023-03-03T20:43:18.771Z,3.17
2023-03-03T20:46:45.253Z,3.01
2023-03-03T20:50:12.134Z,2.85
2023-03-03T20:53:36.451Z,2.80
2023-03-03T20:57:01.000Z,2.84
2023-03-03T21:00:21.742Z,2.78
2023-03-03T21:03:34.611Z,2.85
2023-03-03T21:06:40.773Z,2.70
2023-03-03T21:09:43.799Z,2.69
2023-03-03T21:12:46.941Z,2.50
2023-03-03T21:16:03.584Z,2.46
2023-03-03T21:19:14.408Z,2.39
2023-03-03T21:22:17.361Z,2.56
2023-03-03T21:25:46.593Z,2.54
2023-03-03T21:29:03.611Z,2.47
2023-03-03T21:32:09.041Z,2.34
2023-03-03T21:35:15.683Z,2.13
2023-03-03T21:38:39.244Z,2.30
2023-03-03T21:42:00.584Z,2.28
2023-03-03T21:45:13.542Z,2.14
2023-03-03T21:48:16.502Z,2.06
2023-03-03T21:51:21.420Z,2.04
2023-03-03T21:54:24.466Z,2.04
2023-03-03T21:57:27.872Z,1.96
2023-03-03T22:00:30.383Z,1.93
2023-03-03T22:03:34.355Z,1.97
2023-03-03T22:06:37.558Z,1.94
2023-03-03T22:09:40.891Z,1.93
2023-03-03T22:12:43.487Z,1.94
2023-03-03T22:15:48.006Z,2.09
2023-03-03T22:18:50.691Z,1.89
2023-03-03T22:21:53.881Z,1.71
2023-03-03T22:24:56.504Z,1.84
2023-03-03T22:27:59.375Z,1.58
2023-03-03T22:31:01.984Z,1.60
2023-03-03T22:34:05.315Z,1.55
2023-03-03T22:37:08.488Z,1.52
2023-03-03T22:40:13.620Z,1.55
2023-03-03T22:43:16.662Z,1.54
2023-03-03T22:46:21.799Z,1.52
2023-03-03T22:49:24.837Z,1.51
2023-03-03T22:52:27.789Z,1.40
2023-03-03T22:55:32.108Z,1.40
2023-03-03T22:58:34.929Z,1.38
2023-03-03T23:01:37.459Z,1.30
2023-03-03T23:04:40.563Z,1.28
2023-03-03T23:07:43.226Z,1.56
2023-03-03T23:10:46.360Z,1.22
2023-03-03T23:13:51.018Z,1.35
2023-03-03T23:16:53.894Z,1.23
2023-03-03T23:19:56.518Z,1.17
2023-03-03T23:22:59.858Z,1.28
2023-03-03T23:26:02.418Z,1.32
2023-03-03T23:29:05.500Z,1.23
2023-03-03T23:32:08.079Z,1.12
2023-03-03T23:35:11.018Z,1.04
2023-03-03T23:38:17.542Z,1.09
2023-03-03T23:41:22.044Z,1.01
2023-03-03T23:44:24.712Z,1.08
2023-03-03T23:47:27.776Z,1.08
2023-03-03T23:50:33.200Z,1.07
2023-03-03T23:53:36.157Z,0.93
2023-03-03T23:56:38.846Z,0.99
2023-03-03T23:59:41.739Z,0.86
